Байкал

Карта отелей и гостиниц, располагающихся рядом с аэропортом Байкал :

Байкал
Улан-Удэ
Бурятия 51° 48' 28.0188" N, 107° 26' 17.88" E
Код аэродрома ИКАО
UIUU
Код аэродрома RU
УИУУ
Координаты
N51.80778° E107.43830°
Превышение над уровнем моря
516
Основная полоса
08R/26L
Курс магнитный
083/263
Длина основной ВПП
3000
Ширина основной ВПП
47
Покрытие основной ВПП
Твёрдое (железобетон)
Освещение ВПП
Постоянное
Тип: 
Аэродром
Класс аэродрома: 
Международный
Принадлежность: 
ГА
Статус: 
Действующий
Сайт: 
http://www.airportbaikal.ru/
E-mail аэродрома: 
mail@airportbaikal.ru
Страна: 
Россия
Регион: 
Бурятия
Город: 
Улан-Удэ
Дополнительная информация: 
Горный. Оператор: ОАО «Аэропорт Байкал». Грузонапряженность ИВПП до 190 т. До 2008 г. носил название "Мухино". Военный индекс: XIUU / ЬИУУ. Ген. директор: Киселёв Алексей Леонидович
Схемы аэропортов: 
Погода: 

Авиационная погода в аэропорту Байкал

Регион: 
Погода METAR: 
UIUU 261730Z 32004MPS 9999 BKN037CB M12/M18 Q1015 R26/491045 NOSIG RMK QFE717/0956
Время наблюдения
2021-02-26T17:30:00Z
Температура C
-12.0
Точка росы
-18.0
Направление ветра
320
Скорость ветра (узлы)
8
Метео видимость
6.21
Явления погоды
Условия полета
VFR
Аэропорт подробнее: 

Найти трансфер

С помощью этой формы Вы можете найти трансфер из аэропорта Байкал в город, аэропорт или вокзал:

Карта места

Javascript is required to view this map.

Погода в аэропортах:

Авиационная погода в Ульяновске

Регион: 
Погода METAR: 
UWLW 261800Z 16008MPS 1300 1100S R20/P2000D SN BLSN OVC006 M11/M13 Q1003 R20/494030 NOSIG RMK QFE747
Время наблюдения
2021-02-26T18:00:00Z
Температура C
-11.0
Точка росы
-13.0
Направление ветра
160
Скорость ветра (узлы)
16
Метео видимость
0.81
Явления погоды
BLSN SN
Условия полета
LIFR
Аэропорт подробнее: 

Авиационная погода в Вадсё

Регион: 
Погода METAR: 
ENVD 261750Z 34025KT 9999 VCSH FEW040 01/M04 Q1002
Время наблюдения
2021-02-26T17:50:00Z
Температура C
1.0
Точка росы
-4.0
Направление ветра
340
Скорость ветра (узлы)
25
Метео видимость
6.21
Явления погоды
VCSH
Условия полета
VFR

Авиационная погода в Уральске

Регион: 
Погода METAR: 
UARR 261800Z 15008MPS 4100 -SN SCT010 BKN040 M10/M12 Q1013 R22/453540 NOSIG RMK QFE756/1009
Время наблюдения
2021-02-26T18:00:00Z
Температура C
-10.0
Точка росы
-12.0
Направление ветра
150
Скорость ветра (узлы)
16
Метео видимость
2.55
Явления погоды
-SN
Условия полета
IFR
Аэропорт подробнее: 

Авиационная погода в Грозном

Регион: 
Погода METAR: 
URMG 261730Z 26002MPS 210V010 9999 -SHRA BKN038CB 03/01 Q1024 R26/290250 NOSIG RMK QFE753/1004
Время наблюдения
2021-02-26T17:30:00Z
Температура C
3.0
Точка росы
1.0
Направление ветра
260
Скорость ветра (узлы)
4
Метео видимость
6.21
Явления погоды
-SHRA
Условия полета
VFR
Аэропорт подробнее: